createdAt,value
2019-05-02T00:00:19.741Z,1007.89
2019-05-02T00:01:20.170Z,1007.92
2019-05-02T00:02:24.100Z,1007.90
2019-05-02T00:03:27.003Z,1007.84
2019-05-02T00:04:27.441Z,1007.87
2019-05-02T00:05:32.044Z,1007.85
2019-05-02T00:06:38.093Z,1007.84
2019-05-02T00:07:40.691Z,1007.81
2019-05-02T00:08:41.141Z,1007.80
2019-05-02T00:09:47.423Z,1007.87
2019-05-02T00:10:47.980Z,1007.84
2019-05-02T00:11:58.578Z,1007.82
2019-05-02T00:12:54.810Z,1007.85
2019-05-02T00:13:55.547Z,1007.80
2019-05-02T00:14:56.520Z,1007.80
2019-05-02T00:16:02.415Z,1007.79
2019-05-02T00:17:02.834Z,1007.75
2019-05-02T00:18:03.257Z,1007.79
2019-05-02T00:19:03.706Z,1007.80
2019-05-02T00:20:04.153Z,1007.78
2019-05-02T00:21:04.616Z,1007.80
2019-05-02T00:22:05.104Z,1007.76
2019-05-02T00:23:05.807Z,1007.75
2019-05-02T00:24:06.255Z,1007.72
2019-05-02T00:25:11.079Z,1007.73
2019-05-02T00:26:13.168Z,1007.72
2019-05-02T00:27:13.607Z,1007.72
2019-05-02T00:28:14.128Z,1007.74
2019-05-02T00:29:14.584Z,1007.71
2019-05-02T00:30:19.179Z,1007.70
2019-05-02T00:31:19.696Z,1007.71
2019-05-02T00:32:22.437Z,1007.69
2019-05-02T00:33:24.037Z,1007.70
2019-05-02T00:34:24.499Z,1007.69
2019-05-02T00:35:24.980Z,1007.76
2019-05-02T00:36:25.487Z,1007.67
2019-05-02T00:37:26.743Z,1007.70
2019-05-02T00:38:27.304Z,1007.66
2019-05-02T00:39:27.784Z,1007.68
2019-05-02T00:40:29.269Z,1007.71
2019-05-02T00:41:33.229Z,1007.70
2019-05-02T00:42:36.164Z,1007.62
2019-05-02T00:43:36.659Z,1007.66
2019-05-02T00:44:37.119Z,1007.61
2019-05-02T00:45:37.602Z,1007.69
2019-05-02T00:46:38.052Z,1007.64
2019-05-02T00:47:42.190Z,1007.64
2019-05-02T00:48:45.957Z,1007.63
2019-05-02T00:49:46.414Z,1007.67
2019-05-02T00:50:50.945Z,1007.65
2019-05-02T00:51:56.514Z,1007.66
2019-05-02T00:52:59.743Z,1007.66
2019-05-02T00:54:00.192Z,1007.65
2019-05-02T00:55:00.620Z,1007.64
2019-05-02T00:56:05.178Z,1007.59
2019-05-02T00:57:07.565Z,1007.63
2019-05-02T00:58:08.083Z,1007.56
2019-05-02T00:59:08.845Z,1007.55
2019-05-02T01:00:13.316Z,1007.52
2019-05-02T01:01:15.924Z,1007.57
2019-05-02T01:02:16.420Z,1007.52
2019-05-02T01:03:17.962Z,1007.52
2019-05-02T01:04:18.461Z,1007.51
2019-05-02T01:05:18.981Z,1007.52
2019-05-02T01:06:19.466Z,1007.54
2019-05-02T01:07:20.380Z,1007.49
2019-05-02T01:08:26.344Z,1007.49
2019-05-02T01:09:26.799Z,1007.52
2019-05-02T01:10:27.254Z,1007.51
2019-05-02T01:11:28.281Z,1007.49
2019-05-02T01:12:32.511Z,1007.46
2019-05-02T01:13:33.156Z,1007.47
2019-05-02T01:14:33.633Z,1007.47
2019-05-02T01:15:34.089Z,1007.51
2019-05-02T01:16:34.660Z,1007.44
2019-05-02T01:17:35.130Z,1007.50
2019-05-02T01:18:37.198Z,1007.47
2019-05-02T01:19:42.045Z,1007.51
2019-05-02T01:20:42.611Z,1007.45
2019-05-02T01:21:43.214Z,1007.41
2019-05-02T01:22:47.087Z,1007.45
2019-05-02T01:23:50.098Z,1007.44
2019-05-02T01:24:50.612Z,1007.46
2019-05-02T01:25:52.902Z,1007.45
2019-05-02T01:26:55.068Z,1007.41
2019-05-02T01:27:55.514Z,1007.44
2019-05-02T01:28:56.074Z,1007.41
2019-05-02T01:29:56.512Z,1007.44
2019-05-02T01:30:58.031Z,1007.42
2019-05-02T01:31:58.503Z,1007.42
2019-05-02T01:33:01.498Z,1007.46
2019-05-02T01:34:05.365Z,1007.43
2019-05-02T01:35:05.841Z,1007.42
2019-05-02T01:36:08.127Z,1007.41
2019-05-02T01:37:12.377Z,1007.45
2019-05-02T01:38:15.172Z,1007.45
2019-05-02T01:39:15.693Z,1007.45
2019-05-02T01:40:17.773Z,1007.41
2019-05-02T01:41:19.498Z,1007.44
2019-05-02T01:42:19.975Z,1007.39
2019-05-02T01:43:24.161Z,1007.39
2019-05-02T01:44:25.774Z,1007.34
2019-05-02T01:45:26.278Z,1007.38
2019-05-02T01:46:26.718Z,1007.38
2019-05-02T01:47:29.069Z,1007.34
2019-05-02T01:48:33.752Z,1007.33
2019-05-02T01:49:34.293Z,1007.34
2019-05-02T01:50:34.769Z,1007.35
2019-05-02T01:51:36.867Z,1007.36
2019-05-02T01:52:37.522Z,1007.28
2019-05-02T01:53:38.011Z,1007.34
2019-05-02T01:54:40.656Z,1007.34
2019-05-02T01:55:44.889Z,1007.30
2019-05-02T01:56:45.344Z,1007.31
2019-05-02T01:57:46.051Z,1007.28
2019-05-02T01:58:46.552Z,1007.28
2019-05-02T01:59:48.111Z,1007.26
2019-05-02T02:00:48.559Z,1007.27
2019-05-02T02:01:53.265Z,1007.23
2019-05-02T02:02:55.476Z,1007.19
2019-05-02T02:03:55.922Z,1007.16
2019-05-02T02:04:56.924Z,1007.20
2019-05-02T02:05:58.445Z,1007.21
2019-05-02T02:06:58.913Z,1007.31
2019-05-02T02:07:59.374Z,1007.19
2019-05-02T02:09:03.494Z,1007.17
2019-05-02T02:10:06.229Z,1007.16
2019-05-02T02:11:06.677Z,1007.11
2019-05-02T02:12:09.748Z,1007.16
2019-05-02T02:13:11.770Z,1007.11
2019-05-02T02:14:14.939Z,1007.13
2019-05-02T02:15:18.976Z,1007.13
2019-05-02T02:16:19.458Z,1007.13
2019-05-02T02:17:19.937Z,1007.11
2019-05-02T02:18:22.092Z,1007.10
2019-05-02T02:19:26.807Z,1007.13
2019-05-02T02:20:27.280Z,1007.12
2019-05-02T02:21:27.796Z,1007.05
2019-05-02T02:22:28.280Z,1007.04
2019-05-02T02:23:28.733Z,1007.09
2019-05-02T02:24:29.178Z,1007.01
2019-05-02T02:25:32.131Z,1007.11
2019-05-02T02:26:36.032Z,1007.05
2019-05-02T02:27:36.498Z,1007.04
2019-05-02T02:28:36.947Z,1007.00
2019-05-02T02:29:39.079Z,1007.07
2019-05-02T02:30:43.811Z,1007.04
2019-05-02T02:31:46.957Z,1007.02
2019-05-02T02:32:49.025Z,1007.02
2019-05-02T02:33:49.903Z,1007.00
2019-05-02T02:34:50.550Z,1006.99
2019-05-02T02:35:52.161Z,1006.99
2019-05-02T02:36:53.013Z,1006.99
2019-05-02T02:37:55.660Z,1006.96
2019-05-02T02:38:56.379Z,1007.07
2019-05-02T02:39:56.817Z,1007.00
2019-05-02T02:40:57.270Z,1006.99
2019-05-02T02:41:57.734Z,1006.98
2019-05-02T02:42:58.220Z,1006.99
2019-05-02T02:44:00.533Z,1007.02
2019-05-02T02:45:01.162Z,1006.98
2019-05-02T02:46:01.607Z,1007.00
2019-05-02T02:47:02.128Z,1007.02
2019-05-02T02:48:02.753Z,1006.95
2019-05-02T02:49:03.424Z,1006.97
2019-05-02T02:50:05.420Z,1006.99
2019-05-02T02:51:06.031Z,1007.04
2019-05-02T02:52:06.943Z,1006.99
2019-05-02T02:53:07.530Z,1006.98
2019-05-02T02:54:07.975Z,1007.01
2019-05-02T02:55:08.423Z,1006.91
2019-05-02T02:56:08.885Z,1007.01
2019-05-02T02:57:20.071Z,1006.94
2019-05-02T02:58:15.782Z,1006.97
2019-05-02T02:59:19.407Z,1006.99
2019-05-02T03:00:22.669Z,1006.96
2019-05-02T03:01:28.833Z,1006.93
2019-05-02T03:02:29.534Z,1006.94
2019-05-02T03:03:30.638Z,1006.95
2019-05-02T03:04:35.077Z,1006.89
2019-05-02T03:05:35.533Z,1006.93
2019-05-02T03:06:38.499Z,1006.93
2019-05-02T03:07:42.425Z,1006.92
2019-05-02T03:08:46.229Z,1006.91
2019-05-02T03:09:49.351Z,1006.88
2019-05-02T03:10:49.815Z,1006.91
2019-05-02T03:11:50.283Z,1006.86
2019-05-02T03:12:50.726Z,1006.91
2019-05-02T03:13:53.440Z,1006.86
2019-05-02T03:14:56.551Z,1006.85
2019-05-02T03:16:00.463Z,1006.86
2019-05-02T03:17:03.442Z,1006.94
2019-05-02T03:18:04.095Z,1006.88
2019-05-02T03:19:04.536Z,1006.89
2019-05-02T03:20:04.977Z,1006.87
2019-05-02T03:21:05.443Z,1006.89
2019-05-02T03:22:05.901Z,1006.88
2019-05-02T03:23:06.402Z,1006.87
2019-05-02T03:24:06.847Z,1006.87
2019-05-02T03:25:07.309Z,1006.84
2019-05-02T03:26:14.614Z,1006.84
2019-05-02T03:27:14.305Z,1006.81
2019-05-02T03:28:18.532Z,1006.80
2019-05-02T03:29:21.192Z,1006.78
2019-05-02T03:30:33.198Z,1006.77
2019-05-02T03:31:30.469Z,1006.71
2019-05-02T03:32:35.084Z,1006.75
2019-05-02T03:33:51.922Z,1006.75
2019-05-02T03:34:51.909Z,1006.74
2019-05-02T03:35:49.646Z,1006.72
2019-05-02T03:36:50.199Z,1006.76
2019-05-02T03:37:51.515Z,1006.74
2019-05-02T03:38:53.470Z,1006.73
2019-05-02T03:39:57.349Z,1006.71
2019-05-02T03:40:58.458Z,1006.73
2019-05-02T03:42:02.897Z,1006.70
2019-05-02T03:43:05.342Z,1006.79
2019-05-02T03:44:11.043Z,1006.78
2019-05-02T03:45:12.358Z,1006.79
2019-05-02T03:46:13.446Z,1006.75
2019-05-02T03:47:20.251Z,1006.78
2019-05-02T03:48:25.693Z,1006.74
2019-05-02T03:49:27.158Z,1006.86
2019-05-02T03:50:32.427Z,1006.77
2019-05-02T03:51:34.073Z,1006.81
2019-05-02T03:52:36.643Z,1006.77
2019-05-02T03:53:40.983Z,1006.73
2019-05-02T03:54:50.531Z,1006.78
2019-05-02T03:55:47.848Z,1006.79
2019-05-02T03:56:51.087Z,1006.79
2019-05-02T03:57:52.076Z,1006.84
2019-05-02T03:58:56.379Z,1006.80
2019-05-02T03:59:59.040Z,1006.77
2019-05-02T04:01:02.073Z,1006.79
2019-05-02T04:02:04.230Z,1006.80
2019-05-02T04:03:04.689Z,1006.75
2019-05-02T04:04:05.167Z,1006.76
2019-05-02T04:05:05.636Z,1006.76
2019-05-02T04:06:06.184Z,1006.73
2019-05-02T04:07:06.705Z,1006.70
2019-05-02T04:08:07.155Z,1006.68
2019-05-02T04:09:07.655Z,1006.68
2019-05-02T04:10:13.414Z,1006.64
2019-05-02T04:11:14.543Z,1006.67
2019-05-02T04:12:19.288Z,1006.61
2019-05-02T04:13:21.405Z,1006.62
2019-05-02T04:14:36.864Z,1006.63
2019-05-02T04:15:28.653Z,1006.65
2019-05-02T04:16:34.714Z,1006.65
2019-05-02T04:17:37.269Z,1006.63
2019-05-02T04:18:37.909Z,1006.65
2019-05-02T04:19:38.407Z,1006.56
2019-05-02T04:20:43.581Z,1006.59
2019-05-02T04:21:45.265Z,1006.61
2019-05-02T04:22:48.999Z,1006.63
2019-05-02T04:23:52.150Z,1006.64
2019-05-02T04:24:54.888Z,1006.60
2019-05-02T04:25:56.821Z,1006.62
2019-05-02T04:26:57.283Z,1006.62
2019-05-02T04:27:57.722Z,1006.57
2019-05-02T04:28:58.186Z,1006.60
2019-05-02T04:30:10.241Z,1006.60
2019-05-02T04:31:05.091Z,1006.59
2019-05-02T04:32:11.772Z,1006.59
2019-05-02T04:33:11.958Z,1006.63
2019-05-02T04:34:15.509Z,1006.59
2019-05-02T04:35:18.885Z,1006.57
2019-05-02T04:36:19.358Z,1006.59
2019-05-02T04:37:19.812Z,1006.66
2019-05-02T04:38:31.003Z,1006.65
2019-05-02T04:39:28.654Z,1006.67
2019-05-02T04:40:34.954Z,1006.67
2019-05-02T04:41:35.659Z,1006.64
2019-05-02T04:42:39.149Z,1006.64
2019-05-02T04:43:49.947Z,1006.67
2019-05-02T04:45:09.569Z,1006.66
2019-05-02T04:45:56.444Z,1006.68
2019-05-02T04:47:09.418Z,1006.66
2019-05-02T04:48:08.167Z,1006.66
2019-05-02T04:49:09.317Z,1006.58
2019-05-02T04:50:18.305Z,1006.59
2019-05-02T04:51:20.080Z,1006.53
2019-05-02T04:52:21.446Z,1006.54
2019-05-02T04:53:26.005Z,1006.55
2019-05-02T04:54:32.170Z,1006.50
2019-05-02T04:55:33.671Z,1006.49
2019-05-02T04:56:42.231Z,1006.51
2019-05-02T04:57:47.273Z,1006.49
2019-05-02T04:58:49.346Z,1006.55
2019-05-02T04:59:56.377Z,1006.58
2019-05-02T05:00:59.255Z,1006.57
2019-05-02T05:02:02.254Z,1006.53
2019-05-02T05:03:07.305Z,1006.52
2019-05-02T05:04:09.182Z,1006.47
2019-05-02T05:05:09.680Z,1006.45
2019-05-02T05:06:12.147Z,1006.41
2019-05-02T05:07:13.046Z,1006.51
2019-05-02T05:08:17.549Z,1006.46
2019-05-02T05:09:20.081Z,1006.48
2019-05-02T05:10:20.544Z,1006.44
2019-05-02T05:11:24.844Z,1006.46
2019-05-02T05:12:25.569Z,1006.42
2019-05-02T05:13:26.545Z,1006.36
2019-05-02T05:14:31.454Z,1006.42
2019-05-02T05:15:38.278Z,1006.36
2019-05-02T05:16:45.340Z,1006.35
2019-05-02T05:17:47.925Z,1006.37
2019-05-02T05:18:53.115Z,1006.37
2019-05-02T05:19:53.818Z,1006.36
2019-05-02T05:20:54.420Z,1006.37
2019-05-02T05:21:58.766Z,1006.42
2019-05-02T05:23:01.303Z,1006.43
2019-05-02T05:24:01.793Z,1006.42
2019-05-02T05:25:02.261Z,1006.38
2019-05-02T05:26:04.676Z,1006.46
2019-05-02T05:27:05.280Z,1006.49
2019-05-02T05:28:06.739Z,1006.48
2019-05-02T05:29:09.249Z,1006.50
2019-05-02T05:30:15.427Z,1006.48
2019-05-02T05:31:23.690Z,1006.45
2019-05-02T05:32:22.639Z,1006.47
2019-05-02T05:33:23.187Z,1006.46
2019-05-02T05:34:28.642Z,1006.45
2019-05-02T05:35:30.056Z,1006.48
2019-05-02T05:36:33.896Z,1006.49
2019-05-02T05:37:34.697Z,1006.48
2019-05-02T05:38:38.148Z,1006.44
2019-05-02T05:39:43.098Z,1006.49
2019-05-02T05:40:50.231Z,1006.50
2019-05-02T05:41:52.234Z,1006.54
2019-05-02T05:43:21.769Z,1006.58
2019-05-02T05:44:23.314Z,1006.57
2019-05-02T05:45:31.750Z,1006.53
2019-05-02T05:46:33.411Z,1006.45
2019-05-02T05:47:38.697Z,1006.53
2019-05-02T05:48:40.719Z,1006.53
2019-05-02T05:49:41.418Z,1006.50
2019-05-02T05:50:41.871Z,1006.44
2019-05-02T05:52:04.076Z,1006.46
2019-05-02T05:53:04.603Z,1006.44
2019-05-02T05:54:07.706Z,1006.43
2019-05-02T05:55:12.648Z,1006.38
2019-05-02T05:56:21.766Z,1006.41
2019-05-02T05:57:22.238Z,1006.45
2019-05-02T05:58:22.788Z,1006.36
2019-05-02T05:59:28.117Z,1006.46
2019-05-02T06:00:29.680Z,1006.43
2019-05-02T06:01:34.561Z,1006.44
2019-05-02T06:02:50.868Z,1006.47
2019-05-02T06:03:44.997Z,1006.42
2019-05-02T06:04:47.395Z,1006.48
2019-05-02T06:05:50.423Z,1006.43
2019-05-02T06:06:54.134Z,1006.44
2019-05-02T06:07:57.559Z,1006.45
2019-05-02T06:08:58.092Z,1006.45
2019-05-02T06:10:02.181Z,1006.39
2019-05-02T06:11:05.002Z,1006.38
2019-05-02T06:12:05.488Z,1006.42
2019-05-02T06:13:10.894Z,1006.40
2019-05-02T06:14:12.383Z,1006.36
2019-05-02T06:15:12.847Z,1006.37
2019-05-02T06:16:15.055Z,1006.35
2019-05-02T06:17:17.054Z,1006.34
2019-05-02T06:18:17.736Z,1006.31
2019-05-02T06:19:19.131Z,1006.35
2019-05-02T06:20:25.707Z,1006.33
2019-05-02T06:21:28.021Z,1006.34
2019-05-02T06:22:28.478Z,1006.29
2019-05-02T06:23:31.111Z,1006.33
2019-05-02T06:24:35.335Z,1006.35
2019-05-02T06:25:36.719Z,1006.35
2019-05-02T06:26:37.462Z,1006.34
2019-05-02T06:27:38.129Z,1006.32
2019-05-02T06:28:41.781Z,1006.41
2019-05-02T06:29:43.585Z,1006.36
2019-05-02T06:30:44.054Z,1006.36
2019-05-02T06:31:44.617Z,1006.37
2019-05-02T06:32:45.062Z,1006.37
2019-05-02T06:34:07.170Z,1006.36
2019-05-02T06:35:08.777Z,1006.34
2019-05-02T06:36:09.336Z,1006.31
2019-05-02T06:37:13.683Z,1006.29
2019-05-02T06:38:21.558Z,1006.25
2019-05-02T06:39:27.100Z,1006.21
2019-05-02T06:40:30.834Z,1006.26
2019-05-02T06:41:31.292Z,1006.23
2019-05-02T06:42:32.617Z,1006.22
2019-05-02T06:43:34.933Z,1006.24
2019-05-02T06:44:35.493Z,1006.17
2019-05-02T06:45:37.771Z,1006.20
2019-05-02T06:46:41.037Z,1006.22
2019-05-02T06:47:43.513Z,1006.24
2019-05-02T06:48:48.246Z,1006.23
2019-05-02T06:49:50.522Z,1006.21
2019-05-02T06:50:52.071Z,1006.21
2019-05-02T06:51:56.231Z,1006.15
2019-05-02T06:53:04.345Z,1006.14
2019-05-02T06:54:06.463Z,1006.16
2019-05-02T06:55:06.915Z,1006.18
2019-05-02T06:56:12.673Z,1006.15
2019-05-02T06:57:18.962Z,1006.17
2019-05-02T06:58:21.245Z,1006.09
2019-05-02T06:59:21.757Z,1006.11
2019-05-02T07:00:34.751Z,1006.15
2019-05-02T07:01:28.659Z,1006.12
2019-05-02T07:02:33.592Z,1006.09
2019-05-02T07:03:35.544Z,1006.15
2019-05-02T07:04:36.001Z,1006.10
2019-05-02T07:05:36.503Z,1006.17
2019-05-02T07:06:57.663Z,1006.15
2019-05-02T07:07:44.418Z,1006.07
2019-05-02T07:08:44.935Z,1006.06
2019-05-02T07:09:46.556Z,1006.05
2019-05-02T07:10:47.047Z,1006.04
2019-05-02T07:11:56.915Z,1006.08
2019-05-02T07:13:09.832Z,1006.02
2019-05-02T07:14:12.478Z,1005.98
2019-05-02T07:15:08.406Z,1006.03
2019-05-02T07:16:10.612Z,1006.04
2019-05-02T07:17:15.414Z,1006.02
2019-05-02T07:18:24.730Z,1006.07
2019-05-02T07:19:27.455Z,1006.05
2019-05-02T07:20:29.596Z,1006.08
2019-05-02T07:21:38.711Z,1006.04
2019-05-02T07:22:40.849Z,1006.02
2019-05-02T07:23:43.454Z,1005.94
2019-05-02T07:24:43.894Z,1005.98
2019-05-02T07:25:45.371Z,1006.01
2019-05-02T07:26:45.832Z,1005.97
2019-05-02T07:27:46.300Z,1005.96
2019-05-02T07:28:47.523Z,1005.95
2019-05-02T07:29:52.232Z,1005.93
2019-05-02T07:30:54.889Z,1005.85
2019-05-02T07:31:56.503Z,1005.85
2019-05-02T07:33:01.093Z,1005.91
2019-05-02T07:34:03.387Z,1005.91
2019-05-02T07:35:03.839Z,1005.96
2019-05-02T07:36:04.291Z,1006.04
2019-05-02T07:37:08.352Z,1005.98
2019-05-02T07:38:11.202Z,1005.91
2019-05-02T07:39:11.667Z,1005.98
2019-05-02T07:40:16.729Z,1005.97
2019-05-02T07:41:17.543Z,1005.93
2019-05-02T07:42:19.028Z,1005.90
2019-05-02T07:43:22.237Z,1005.95
2019-05-02T07:44:27.246Z,1005.95
2019-05-02T07:45:29.252Z,1005.91
2019-05-02T07:46:30.703Z,1006.01
2019-05-02T07:47:34.670Z,1005.94
2019-05-02T07:48:37.591Z,1005.97
2019-05-02T07:49:38.058Z,1005.94
2019-05-02T07:50:41.256Z,1006.00
2019-05-02T07:51:44.936Z,1005.93
2019-05-02T07:52:45.399Z,1005.96
2019-05-02T07:53:48.520Z,1006.02
2019-05-02T07:54:50.168Z,1006.01
2019-05-02T07:55:50.626Z,1005.97
2019-05-02T07:56:53.320Z,1006.00
2019-05-02T07:57:54.096Z,1006.01
2019-05-02T07:58:54.556Z,1005.99
2019-05-02T08:00:00.324Z,1005.97
2019-05-02T08:01:01.442Z,1005.96
2019-05-02T08:02:03.977Z,1006.04
2019-05-02T08:03:05.147Z,1005.92
2019-05-02T08:04:11.069Z,1005.96
2019-05-02T08:05:15.429Z,1005.93
2019-05-02T08:06:19.603Z,1005.94
2019-05-02T08:07:21.076Z,1005.92
2019-05-02T08:08:24.979Z,1005.95
2019-05-02T08:09:30.392Z,1005.92
2019-05-02T08:10:30.826Z,1005.91
2019-05-02T08:11:32.274Z,1005.93
2019-05-02T08:12:37.769Z,1005.93
2019-05-02T08:13:40.287Z,1005.96
2019-05-02T08:14:40.743Z,1005.93
2019-05-02T08:15:45.604Z,1005.95
2019-05-02T08:16:48.731Z,1005.92
2019-05-02T08:17:53.754Z,1005.95
2019-05-02T08:18:55.757Z,1005.86
2019-05-02T08:20:08.400Z,1005.88
2019-05-02T08:21:09.160Z,1005.90
2019-05-02T08:22:13.547Z,1005.95
2019-05-02T08:23:15.234Z,1005.93
2019-05-02T08:24:23.735Z,1005.97
2019-05-02T08:25:24.187Z,1006.00
2019-05-02T08:26:26.726Z,1005.96
2019-05-02T08:27:29.326Z,1005.90
2019-05-02T08:28:51.913Z,1005.87
2019-05-02T08:29:53.602Z,1005.92
2019-05-02T08:30:56.147Z,1005.87
2019-05-02T08:31:56.645Z,1005.91
2019-05-02T08:32:59.176Z,1005.88
2019-05-02T08:33:59.641Z,1005.90
2019-05-02T08:35:02.233Z,1005.90
2019-05-02T08:36:02.689Z,1005.88
2019-05-02T08:37:09.684Z,1005.90
2019-05-02T08:38:12.504Z,1005.97
2019-05-02T08:39:18.621Z,1005.98
2019-05-02T08:40:19.129Z,1005.87
2019-05-02T08:41:36.756Z,1005.90
2019-05-02T08:42:37.222Z,1005.91
2019-05-02T08:43:40.238Z,1005.83
2019-05-02T08:44:51.407Z,1005.81
2019-05-02T08:45:50.704Z,1005.88
2019-05-02T08:46:53.123Z,1005.89
2019-05-02T08:47:53.733Z,1005.94
2019-05-02T08:48:56.262Z,1005.92
2019-05-02T08:49:56.967Z,1005.92
2019-05-02T08:50:59.676Z,1005.90
2019-05-02T08:52:00.160Z,1005.81
2019-05-02T08:53:02.691Z,1005.78
2019-05-02T08:54:03.128Z,1005.83
2019-05-02T08:55:09.799Z,1005.88
2019-05-02T08:56:10.456Z,1005.84
2019-05-02T08:57:12.001Z,1005.85
2019-05-02T08:58:14.364Z,1005.93
2019-05-02T08:59:19.658Z,1005.88
2019-05-02T09:00:20.277Z,1005.97
2019-05-02T09:01:20.821Z,1005.95
2019-05-02T09:02:26.037Z,1005.94
2019-05-02T09:03:27.807Z,1005.89
2019-05-02T09:04:29.166Z,1005.93
2019-05-02T09:05:31.005Z,1005.86
2019-05-02T09:06:31.461Z,1005.83
2019-05-02T09:07:37.086Z,1005.86
2019-05-02T09:08:38.433Z,1005.82
2019-05-02T09:09:40.001Z,1005.78
2019-05-02T09:10:42.051Z,1005.81
2019-05-02T09:11:57.598Z,1005.87
2019-05-02T09:12:52.052Z,1005.85
2019-05-02T09:13:52.739Z,1005.80
2019-05-02T09:14:53.217Z,1005.76
2019-05-02T09:15:54.411Z,1005.82
2019-05-02T09:16:54.980Z,1005.78
2019-05-02T09:17:56.687Z,1005.77
2019-05-02T09:18:57.170Z,1005.73
2019-05-02T09:20:02.448Z,1005.66
2019-05-02T09:21:04.099Z,1005.71
2019-05-02T09:22:07.599Z,1005.79
2019-05-02T09:23:12.358Z,1005.73
2019-05-02T09:24:18.883Z,1005.64
2019-05-02T09:25:19.426Z,1005.76
2019-05-02T09:26:33.245Z,1005.72
2019-05-02T09:27:26.403Z,1005.67
2019-05-02T09:28:26.876Z,1005.64
2019-05-02T09:29:27.448Z,1005.66
2019-05-02T09:30:27.893Z,1005.68
2019-05-02T09:31:36.861Z,1005.68
2019-05-02T09:32:41.948Z,1005.71
2019-05-02T09:33:46.770Z,1005.67
2019-05-02T09:34:47.473Z,1005.59
2019-05-02T09:35:47.954Z,1005.54
2019-05-02T09:36:48.408Z,1005.55
2019-05-02T09:37:48.884Z,1005.52
2019-05-02T09:38:56.026Z,1005.50
2019-05-02T09:39:55.760Z,1005.51
2019-05-02T09:40:56.396Z,1005.47
2019-05-02T09:41:56.935Z,1005.47
2019-05-02T09:43:01.751Z,1005.45
2019-05-02T09:44:03.844Z,1005.43
2019-05-02T09:45:04.399Z,1005.40
2019-05-02T09:46:07.227Z,1005.39
2019-05-02T09:47:12.827Z,1005.38
2019-05-02T09:48:17.225Z,1005.31
2019-05-02T09:49:21.958Z,1005.28
2019-05-02T09:50:29.415Z,1005.27
2019-05-02T09:51:29.065Z,1005.30
2019-05-02T09:52:32.203Z,1005.25
2019-05-02T09:53:36.070Z,1005.21
2019-05-02T09:54:37.027Z,1005.26
2019-05-02T09:55:49.566Z,1005.26
2019-05-02T09:56:48.463Z,1005.29
2019-05-02T09:57:48.963Z,1005.24
2019-05-02T09:58:49.546Z,1005.19
2019-05-02T09:59:55.837Z,1005.30
2019-05-02T10:00:56.323Z,1005.30
2019-05-02T10:01:56.779Z,1005.22
2019-05-02T10:02:57.213Z,1005.24
2019-05-02T10:03:57.765Z,1005.27
2019-05-02T10:04:58.219Z,1005.20
2019-05-02T10:05:58.761Z,1005.18
2019-05-02T10:06:59.230Z,1005.23
2019-05-02T10:08:03.247Z,1005.16
2019-05-02T10:09:07.221Z,1005.16
2019-05-02T10:10:07.828Z,1005.13
2019-05-02T10:11:08.280Z,1005.20
2019-05-02T10:12:08.770Z,1005.07
2019-05-02T10:13:09.223Z,1005.03
2019-05-02T10:14:11.712Z,1005.02
2019-05-02T10:15:12.851Z,1005.00
2019-05-02T10:16:13.491Z,1004.93
2019-05-02T10:17:18.465Z,1004.92
2019-05-02T10:18:19.602Z,1004.96
2019-05-02T10:19:26.153Z,1004.95
2019-05-02T10:20:34.257Z,1004.94
2019-05-02T10:21:33.097Z,1005.02
2019-05-02T10:22:39.440Z,1004.85
2019-05-02T10:23:40.075Z,1004.92
2019-05-02T10:24:42.426Z,1004.91
2019-05-02T10:25:46.713Z,1004.91
2019-05-02T10:26:47.525Z,1004.83
2019-05-02T10:27:47.981Z,1004.87
2019-05-02T10:28:50.371Z,1004.83
2019-05-02T10:29:52.481Z,1004.73
2019-05-02T10:30:56.701Z,1004.78
2019-05-02T10:31:57.343Z,1004.78
2019-05-02T10:32:57.848Z,1004.78
2019-05-02T10:33:58.349Z,1004.71
2019-05-02T10:34:58.813Z,1004.69
2019-05-02T10:35:59.281Z,1004.67
2019-05-02T10:37:01.089Z,1004.69
2019-05-02T10:38:03.437Z,1004.73
2019-05-02T10:39:03.912Z,1004.74
2019-05-02T10:40:07.814Z,1004.64
2019-05-02T10:41:12.046Z,1004.65
2019-05-02T10:42:12.652Z,1004.54
2019-05-02T10:43:13.103Z,1004.57
2019-05-02T10:44:22.689Z,1004.60
2019-05-02T10:45:23.228Z,1004.52
2019-05-02T10:46:33.595Z,1004.50
2019-05-02T10:47:37.120Z,1004.48
2019-05-02T10:48:37.682Z,1004.44
2019-05-02T10:49:38.224Z,1004.48
2019-05-02T10:50:39.741Z,1004.52
2019-05-02T10:51:41.964Z,1004.46
2019-05-02T10:52:46.715Z,1004.46
2019-05-02T10:53:51.966Z,1004.36
2019-05-02T10:54:53.689Z,1004.41
2019-05-02T10:55:54.148Z,1004.37
2019-05-02T10:56:55.654Z,1004.36
2019-05-02T10:57:56.150Z,1004.37
2019-05-02T10:58:56.722Z,1004.39
2019-05-02T10:59:57.177Z,1004.31
2019-05-02T11:00:58.750Z,1004.45
2019-05-02T11:01:59.193Z,1004.32
2019-05-02T11:03:02.606Z,1004.35
2019-05-02T11:04:03.175Z,1004.32
2019-05-02T11:05:03.678Z,1004.31
2019-05-02T11:06:07.697Z,1004.28
2019-05-02T11:07:16.950Z,1004.31
2019-05-02T11:08:22.460Z,1004.29
2019-05-02T11:09:26.246Z,1004.25
2019-05-02T11:10:27.005Z,1004.23
2019-05-02T11:11:27.446Z,1004.19
2019-05-02T11:12:40.742Z,1004.28
2019-05-02T11:13:34.337Z,1004.29
2019-05-02T11:14:34.815Z,1004.25
2019-05-02T11:15:35.288Z,1004.33
2019-05-02T11:16:35.732Z,1004.19
2019-05-02T11:17:36.606Z,1004.11
2019-05-02T11:18:42.349Z,1004.15
2019-05-02T11:19:43.732Z,1004.15
2019-05-02T11:20:44.269Z,1004.17
2019-05-02T11:21:55.265Z,1004.07
2019-05-02T11:22:54.490Z,1004.06
2019-05-02T11:24:02.805Z,1004.18
2019-05-02T11:25:03.360Z,1004.06
2019-05-02T11:26:03.820Z,1004.09
2019-05-02T11:27:04.268Z,1004.03
2019-05-02T11:28:07.134Z,1004.05
2019-05-02T11:29:07.771Z,1004.16
2019-05-02T11:30:08.249Z,1004.10
2019-05-02T11:31:10.230Z,1004.10
2019-05-02T11:32:13.611Z,1004.06
2019-05-02T11:33:14.072Z,1004.06
2019-05-02T11:34:14.528Z,1003.96
2019-05-02T11:35:15.099Z,1003.94
2019-05-02T11:36:15.549Z,1003.98
2019-05-02T11:37:18.057Z,1003.91
2019-05-02T11:38:36.198Z,1003.96
2019-05-02T11:39:34.008Z,1003.91
2019-05-02T11:40:32.150Z,1003.89
2019-05-02T11:41:39.684Z,1003.88
2019-05-02T11:42:41.635Z,1003.84
2019-05-02T11:43:44.850Z,1003.88
2019-05-02T11:44:45.434Z,1003.91
2019-05-02T11:45:45.991Z,1003.80
2019-05-02T11:46:47.130Z,1003.87
2019-05-02T11:47:47.670Z,1003.86
2019-05-02T11:48:56.273Z,1003.82
2019-05-02T11:49:56.051Z,1003.83
2019-05-02T11:50:58.083Z,1003.87
2019-05-02T11:52:01.561Z,1003.80
2019-05-02T11:53:09.115Z,1003.77
2019-05-02T11:54:13.020Z,1003.77
2019-05-02T11:55:13.600Z,1003.75
2019-05-02T11:56:14.047Z,1003.79
2019-05-02T11:57:14.488Z,1003.82
2019-05-02T11:58:14.988Z,1003.78
2019-05-02T11:59:15.485Z,1003.90
2019-05-02T12:00:15.973Z,1003.87
2019-05-02T12:01:19.321Z,1003.81
2019-05-02T12:02:22.911Z,1003.78
2019-05-02T12:03:23.400Z,1003.81
2019-05-02T12:04:23.939Z,1003.78
2019-05-02T12:05:26.596Z,1003.81
2019-05-02T12:06:32.983Z,1003.69
2019-05-02T12:07:33.669Z,1003.70
2019-05-02T12:08:34.200Z,1003.66
2019-05-02T12:09:34.674Z,1003.70
2019-05-02T12:10:36.724Z,1003.60
2019-05-02T12:11:37.351Z,1003.69
2019-05-02T12:12:38.106Z,1003.73
2019-05-02T12:13:38.586Z,1003.70
2019-05-02T12:14:39.045Z,1003.63
2019-05-02T12:15:42.134Z,1003.68
2019-05-02T12:16:44.630Z,1003.59
2019-05-02T12:17:45.102Z,1003.61
2019-05-02T12:18:45.541Z,1003.58
2019-05-02T12:19:46.033Z,1003.54
2019-05-02T12:20:46.513Z,1003.50
2019-05-02T12:21:47.038Z,1003.50
2019-05-02T12:22:47.526Z,1003.52
2019-05-02T12:23:48.301Z,1003.46
2019-05-02T12:24:48.854Z,1003.50
2019-05-02T12:25:49.368Z,1003.50
2019-05-02T12:26:49.911Z,1003.49
2019-05-02T12:27:52.541Z,1003.56
2019-05-02T12:28:53.201Z,1003.50
2019-05-02T12:29:57.677Z,1003.40
2019-05-02T12:30:58.642Z,1003.46
2019-05-02T12:31:59.172Z,1003.45
2019-05-02T12:32:59.627Z,1003.50
2019-05-02T12:34:00.071Z,1003.47
2019-05-02T12:35:02.436Z,1003.42
2019-05-02T12:36:03.029Z,1003.41